createdAt,value
2022-10-24T00:00:16.786Z,13.68
2022-10-24T00:02:39.808Z,13.58
2022-10-24T00:05:02.688Z,13.53
2022-10-24T00:07:25.319Z,13.58
2022-10-24T00:09:47.771Z,13.47
2022-10-24T00:12:10.397Z,13.61
2022-10-24T00:14:35.686Z,13.61
2022-10-24T00:16:59.004Z,13.70
2022-10-24T00:19:21.528Z,13.65
2022-10-24T00:21:44.173Z,13.63
2022-10-24T00:24:07.926Z,13.71
2022-10-24T00:26:30.445Z,13.75
2022-10-24T00:28:53.107Z,13.77
2022-10-24T00:31:18.625Z,13.79
2022-10-24T00:33:42.961Z,13.67
2022-10-24T00:36:05.832Z,13.64
2022-10-24T00:38:28.481Z,13.63
2022-10-24T00:40:51.181Z,13.47
2022-10-24T00:43:19.249Z,13.40
2022-10-24T00:45:50.097Z,13.37
2022-10-24T00:48:17.690Z,13.40
2022-10-24T00:50:40.219Z,13.40
2022-10-24T00:53:02.788Z,13.46
2022-10-24T00:55:25.633Z,13.55
2022-10-24T00:57:53.299Z,13.54
2022-10-24T01:00:25.748Z,13.61
2022-10-24T01:02:48.541Z,13.50
2022-10-24T01:05:12.172Z,13.54
2022-10-24T01:08:11.948Z,13.55
2022-10-24T01:10:40.497Z,13.57
2022-10-24T01:13:18.539Z,13.54
2022-10-24T01:16:08.438Z,13.57
2022-10-24T01:18:48.970Z,13.46
2022-10-24T01:21:26.074Z,13.43
2022-10-24T01:24:02.797Z,13.48
2022-10-24T01:26:31.035Z,13.51
2022-10-24T01:29:16.782Z,13.63
2022-10-24T01:31:49.450Z,13.53
2022-10-24T01:34:22.246Z,13.68
2022-10-24T01:37:07.826Z,13.54
2022-10-24T01:39:37.391Z,13.50
2022-10-24T01:42:02.616Z,13.44
2022-10-24T01:44:30.844Z,13.44
2022-10-24T01:47:03.654Z,13.43
2022-10-24T01:49:32.073Z,13.53
2022-10-24T01:51:58.937Z,13.50
2022-10-24T01:54:21.928Z,13.51
2022-10-24T01:56:45.072Z,13.58
2022-10-24T01:59:30.027Z,13.47
2022-10-24T02:01:57.285Z,13.48
2022-10-24T02:04:21.460Z,13.51
2022-10-24T02:06:45.866Z,13.39
2022-10-24T02:09:14.301Z,13.43
2022-10-24T02:11:38.778Z,13.39
2022-10-24T02:14:16.483Z,13.47
2022-10-24T02:16:40.746Z,13.42
2022-10-24T02:19:04.490Z,13.40
2022-10-24T02:22:06.040Z,13.33
2022-10-24T02:24:34.293Z,13.36
2022-10-24T02:27:12.653Z,13.32
2022-10-24T02:29:46.436Z,13.36
2022-10-24T02:32:16.696Z,13.33
2022-10-24T02:34:41.110Z,13.28
2022-10-24T02:37:05.302Z,13.26
2022-10-24T02:39:29.151Z,13.24
2022-10-24T02:41:55.796Z,13.19
2022-10-24T02:44:19.485Z,13.23
2022-10-24T02:46:44.542Z,13.24
2022-10-24T02:49:07.361Z,13.16
2022-10-24T02:51:34.376Z,13.27
2022-10-24T02:53:58.704Z,13.27
2022-10-24T02:56:21.618Z,13.27
2022-10-24T02:58:45.265Z,13.33
2022-10-24T03:01:07.826Z,13.26
2022-10-24T03:03:30.411Z,13.23
2022-10-24T03:05:53.046Z,13.24
2022-10-24T03:08:15.655Z,13.24
2022-10-24T03:10:38.138Z,13.20
2022-10-24T03:13:01.000Z,13.12
2022-10-24T03:15:23.651Z,13.09
2022-10-24T03:17:49.171Z,13.20
2022-10-24T03:20:11.939Z,13.34
2022-10-24T03:22:34.584Z,13.28
2022-10-24T03:24:57.560Z,13.32
2022-10-24T03:27:20.062Z,13.22
2022-10-24T03:29:42.675Z,13.28
2022-10-24T03:32:06.447Z,13.30
2022-10-24T03:34:29.037Z,13.23
2022-10-24T03:36:51.585Z,13.16
2022-10-24T03:39:14.169Z,13.12
2022-10-24T03:41:36.906Z,13.15
2022-10-24T03:43:59.421Z,13.12
2022-10-24T03:46:22.309Z,13.12
2022-10-24T03:48:44.869Z,13.12
2022-10-24T03:51:07.366Z,13.17
2022-10-24T03:53:29.910Z,13.20
2022-10-24T03:55:52.396Z,13.13
2022-10-24T03:58:15.163Z,13.23
2022-10-24T04:00:40.551Z,13.22
2022-10-24T04:03:03.174Z,13.19
2022-10-24T04:05:25.860Z,13.22
2022-10-24T04:07:48.542Z,13.13
2022-10-24T04:10:11.760Z,13.12
2022-10-24T04:12:34.362Z,13.10
2022-10-24T04:15:00.908Z,13.07
2022-10-24T04:17:26.655Z,13.07
2022-10-24T04:19:49.361Z,13.02
2022-10-24T04:22:12.020Z,12.99
2022-10-24T04:24:34.708Z,12.96
2022-10-24T04:26:57.482Z,12.92
2022-10-24T04:29:20.291Z,12.85
2022-10-24T04:31:43.099Z,12.91
2022-10-24T04:34:06.339Z,12.87
2022-10-24T04:36:28.947Z,12.82
2022-10-24T04:38:51.437Z,12.87
2022-10-24T04:41:14.125Z,12.87
2022-10-24T04:43:36.664Z,12.88
2022-10-24T04:45:59.544Z,12.88
2022-10-24T04:48:22.135Z,12.81
2022-10-24T04:50:48.447Z,12.74
2022-10-24T04:53:11.176Z,12.78
2022-10-24T04:55:39.233Z,12.72
2022-10-24T04:58:02.607Z,12.77
2022-10-24T05:00:25.396Z,12.71
2022-10-24T05:02:48.331Z,12.78
2022-10-24T05:05:11.159Z,12.78
2022-10-24T05:07:33.703Z,12.85
2022-10-24T05:09:56.368Z,12.87
2022-10-24T05:14:42.382Z,12.93
2022-10-24T05:17:05.006Z,12.92
2022-10-24T05:19:27.741Z,12.88
2022-10-24T05:21:50.302Z,12.84
2022-10-24T05:24:12.979Z,12.88
2022-10-24T05:26:35.796Z,12.84
2022-10-24T05:28:58.443Z,12.87
2022-10-24T05:31:21.315Z,12.99
2022-10-24T05:33:44.029Z,13.06
2022-10-24T05:36:07.211Z,12.91
2022-10-24T05:38:30.372Z,12.93
2022-10-24T05:40:53.868Z,12.81
2022-10-24T05:43:16.550Z,12.87
2022-10-24T05:45:39.201Z,13.00
2022-10-24T05:48:01.862Z,12.93
2022-10-24T05:50:24.688Z,12.87
2022-10-24T05:52:47.494Z,12.99
2022-10-24T05:55:11.896Z,13.00
2022-10-24T05:57:37.869Z,12.91
2022-10-24T06:00:00.956Z,13.05
2022-10-24T06:02:23.932Z,13.10
2022-10-24T06:04:48.400Z,13.10
2022-10-24T06:07:11.011Z,12.88
2022-10-24T06:09:33.816Z,12.91
2022-10-24T06:11:56.556Z,12.89
2022-10-24T06:14:19.245Z,12.88
2022-10-24T06:16:42.420Z,12.92
2022-10-24T06:19:05.033Z,12.87
2022-10-24T06:21:28.085Z,12.77
2022-10-24T06:23:51.712Z,12.87
2022-10-24T06:26:15.111Z,12.78
2022-10-24T06:28:39.021Z,12.82
2022-10-24T06:31:03.499Z,12.81
2022-10-24T06:33:26.169Z,12.84
2022-10-24T06:35:48.891Z,12.84
2022-10-24T06:38:11.680Z,12.87
2022-10-24T06:40:37.471Z,12.82
2022-10-24T06:43:00.227Z,12.77
2022-10-24T06:45:24.022Z,12.81
2022-10-24T06:47:50.493Z,12.82
2022-10-24T06:50:16.334Z,12.85
2022-10-24T06:52:39.442Z,12.85
2022-10-24T06:55:02.411Z,12.93
2022-10-24T06:57:25.065Z,12.79
2022-10-24T06:59:47.676Z,12.75
2022-10-24T07:02:13.771Z,12.78
2022-10-24T07:04:36.860Z,12.74
2022-10-24T07:06:59.628Z,12.92
2022-10-24T07:09:22.481Z,13.06
2022-10-24T07:11:45.520Z,13.07
2022-10-24T07:14:09.519Z,13.03
2022-10-24T07:16:32.272Z,13.12
2022-10-24T07:18:54.858Z,13.26
2022-10-24T07:21:23.148Z,13.34
2022-10-24T07:23:46.438Z,13.46
2022-10-24T07:26:12.004Z,13.55
2022-10-24T07:28:36.906Z,13.58
2022-10-24T07:31:00.021Z,13.46
2022-10-24T07:33:22.817Z,13.42
2022-10-24T07:35:45.450Z,13.39
2022-10-24T07:38:08.029Z,13.61
2022-10-24T07:40:30.567Z,13.67
2022-10-24T07:42:53.243Z,13.51
2022-10-24T07:45:15.917Z,13.40
2022-10-24T07:47:38.696Z,13.36
2022-10-24T07:50:01.622Z,13.46
2022-10-24T07:52:25.070Z,13.53
2022-10-24T07:54:47.738Z,13.50
2022-10-24T07:57:11.823Z,13.47
2022-10-24T07:59:42.319Z,13.61
2022-10-24T08:02:05.708Z,13.44
2022-10-24T08:04:30.636Z,13.46
2022-10-24T08:06:53.128Z,13.53
2022-10-24T08:09:16.420Z,13.40
2022-10-24T08:11:39.381Z,13.37
2022-10-24T08:14:04.931Z,13.43
2022-10-24T08:16:27.657Z,13.64
2022-10-24T08:18:52.551Z,13.61
2022-10-24T08:21:17.321Z,13.79
2022-10-24T08:23:42.953Z,13.78
2022-10-24T08:26:07.619Z,13.98
2022-10-24T08:28:30.249Z,14.02
2022-10-24T08:31:04.936Z,14.16
2022-10-24T08:33:28.231Z,14.09
2022-10-24T08:35:51.226Z,14.01
2022-10-24T08:38:14.110Z,13.92
2022-10-24T08:40:36.869Z,14.08
2022-10-24T08:42:59.502Z,14.28
2022-10-24T08:45:43.302Z,14.37
2022-10-24T08:48:09.997Z,14.59
2022-10-24T08:50:34.641Z,14.57
2022-10-24T08:53:21.146Z,14.56
2022-10-24T08:55:50.073Z,14.61
2022-10-24T08:58:22.418Z,14.47
2022-10-24T09:00:48.526Z,14.36
2022-10-24T09:03:51.223Z,14.39
2022-10-24T09:06:20.284Z,14.29
2022-10-24T09:08:51.504Z,14.46
2022-10-24T09:11:22.643Z,14.61
2022-10-24T09:13:45.583Z,14.76
2022-10-24T09:16:14.521Z,14.92
2022-10-24T09:18:43.329Z,14.95
2022-10-24T09:21:26.841Z,14.97
2022-10-24T09:23:51.282Z,14.81
2022-10-24T09:26:18.843Z,14.76
2022-10-24T09:28:42.258Z,15.02
2022-10-24T09:31:16.216Z,15.14
2022-10-24T09:33:42.655Z,15.43
2022-10-24T09:36:05.914Z,15.62
2022-10-24T09:38:34.543Z,15.52
2022-10-24T09:41:00.897Z,15.67
2022-10-24T09:43:47.058Z,15.52
2022-10-24T09:46:37.668Z,15.45
2022-10-24T09:49:07.048Z,15.57
2022-10-24T09:51:38.921Z,15.73
2022-10-24T09:54:04.900Z,15.79
2022-10-24T09:56:58.437Z,15.64
2022-10-24T09:59:44.271Z,15.43
2022-10-24T10:02:28.271Z,15.54
2022-10-24T10:05:18.747Z,15.31
2022-10-24T10:07:48.451Z,15.04
2022-10-24T10:10:29.575Z,14.97
2022-10-24T10:13:24.242Z,15.29
2022-10-24T10:15:53.207Z,15.29
2022-10-24T10:18:39.824Z,15.22
2022-10-24T10:21:05.266Z,15.11
2022-10-24T10:23:32.687Z,15.04
2022-10-24T10:26:17.096Z,15.22
2022-10-24T10:29:20.825Z,15.49
2022-10-24T10:31:47.048Z,15.59
2022-10-24T10:34:15.023Z,15.64
2022-10-24T10:37:08.799Z,15.54
2022-10-24T10:39:44.414Z,15.46
2022-10-24T10:42:17.559Z,15.16
2022-10-24T10:45:00.901Z,15.18
2022-10-24T10:47:37.114Z,15.15
2022-10-24T10:49:59.787Z,15.38
2022-10-24T10:52:29.974Z,15.53
2022-10-24T10:54:58.395Z,15.70
2022-10-24T10:57:37.767Z,15.90
2022-10-24T11:00:51.218Z,16.02
2022-10-24T11:03:31.624Z,16.12
2022-10-24T11:06:18.826Z,15.86
2022-10-24T11:09:02.835Z,15.70
2022-10-24T11:11:30.338Z,15.67
2022-10-24T11:14:11.976Z,15.91
2022-10-24T11:16:36.497Z,15.81
2022-10-24T11:19:21.274Z,15.84
2022-10-24T11:21:44.984Z,15.80
2022-10-24T11:24:26.498Z,16.17
2022-10-24T11:27:24.363Z,16.36
2022-10-24T11:30:03.912Z,16.55
2022-10-24T11:32:51.019Z,16.80
2022-10-24T11:35:30.472Z,17.02
2022-10-24T11:37:59.397Z,16.93
2022-10-24T11:40:23.816Z,16.96
2022-10-24T11:42:59.668Z,17.13
2022-10-24T11:45:27.663Z,16.69
2022-10-24T11:47:50.747Z,16.83
2022-10-24T11:50:27.182Z,16.99
2022-10-24T11:52:52.910Z,17.02
2022-10-24T11:55:39.036Z,17.27
2022-10-24T11:58:05.485Z,17.31
2022-10-24T12:00:34.081Z,16.96
2022-10-24T12:03:33.916Z,16.46
2022-10-24T12:06:08.878Z,16.26
2022-10-24T12:08:31.429Z,16.33
2022-10-24T12:10:53.952Z,16.67
2022-10-24T12:13:38.231Z,16.81
2022-10-24T12:16:22.033Z,16.88
2022-10-24T12:18:48.781Z,17.14
2022-10-24T12:21:23.390Z,17.00
2022-10-24T12:23:57.031Z,17.03
2022-10-24T12:26:24.959Z,17.07
2022-10-24T12:29:21.126Z,17.34
2022-10-24T12:31:43.864Z,17.51
2022-10-24T12:34:15.616Z,17.42
2022-10-24T12:37:31.112Z,17.14
2022-10-24T12:39:58.431Z,17.08
2022-10-24T12:42:24.285Z,17.20
2022-10-24T12:44:50.535Z,17.04
2022-10-24T12:47:34.379Z,17.27
2022-10-24T12:49:58.653Z,17.18
2022-10-24T12:52:30.207Z,16.97
2022-10-24T12:54:52.837Z,16.86
2022-10-24T12:57:23.532Z,16.67
2022-10-24T13:00:01.116Z,16.88
2022-10-24T13:02:40.670Z,16.93
2022-10-24T13:05:15.385Z,17.23
2022-10-24T13:07:47.244Z,17.32
2022-10-24T13:10:27.710Z,17.31
2022-10-24T13:13:23.948Z,17.31
2022-10-24T13:16:15.736Z,17.08
2022-10-24T13:18:38.686Z,16.81
2022-10-24T13:21:16.790Z,17.03
2022-10-24T13:23:40.278Z,17.28
2022-10-24T13:26:03.127Z,17.27
2022-10-24T13:28:25.827Z,17.10
2022-10-24T13:31:00.528Z,17.10
2022-10-24T13:33:32.495Z,17.14
2022-10-24T13:36:27.965Z,17.07
2022-10-24T13:38:57.721Z,17.25
2022-10-24T13:41:39.546Z,17.31
2022-10-24T13:44:28.147Z,17.46
2022-10-24T13:47:11.433Z,17.49
2022-10-24T13:49:39.873Z,17.38
2022-10-24T13:52:18.537Z,17.28
2022-10-24T13:54:46.232Z,17.42
2022-10-24T13:57:37.781Z,17.42
2022-10-24T14:00:02.705Z,17.48
2022-10-24T14:02:38.421Z,17.55
2022-10-24T14:05:02.469Z,17.51
2022-10-24T14:07:31.463Z,17.35
2022-10-24T14:10:09.566Z,17.14
2022-10-24T14:12:33.523Z,17.27
2022-10-24T14:14:57.696Z,17.23
2022-10-24T14:17:26.416Z,16.66
2022-10-24T14:19:54.344Z,16.56
2022-10-24T14:22:24.858Z,16.79
2022-10-24T14:24:49.277Z,16.72
2022-10-24T14:27:13.514Z,16.73
2022-10-24T14:29:36.299Z,16.86
2022-10-24T14:32:05.301Z,16.96
2022-10-24T14:34:32.579Z,17.10
2022-10-24T14:37:14.440Z,17.17
2022-10-24T14:39:39.066Z,16.59
2022-10-24T14:42:02.397Z,16.55
2022-10-24T14:44:25.374Z,16.56
2022-10-24T14:47:05.567Z,16.41
2022-10-24T14:49:28.241Z,16.46
2022-10-24T14:54:29.053Z,16.35
2022-10-24T14:56:53.726Z,16.48
2022-10-24T14:59:27.273Z,16.39
2022-10-24T15:01:55.613Z,16.53
2022-10-24T15:04:30.329Z,16.29
2022-10-24T15:06:56.902Z,16.21
2022-10-24T15:09:20.311Z,16.31
2022-10-24T15:11:48.845Z,16.31
2022-10-24T15:14:37.150Z,16.51
2022-10-24T15:17:32.772Z,16.36
2022-10-24T15:19:58.329Z,16.19
2022-10-24T15:22:33.869Z,16.07
2022-10-24T15:24:59.667Z,16.18
2022-10-24T15:27:30.973Z,16.36
2022-10-24T15:29:54.231Z,16.52
2022-10-24T15:32:16.836Z,16.52
2022-10-24T15:34:39.590Z,16.63
2022-10-24T15:37:04.069Z,16.46
2022-10-24T15:39:26.902Z,16.48
2022-10-24T15:41:49.476Z,16.46
2022-10-24T15:44:18.440Z,16.51
2022-10-24T15:46:41.074Z,16.51
2022-10-24T15:49:03.761Z,16.39
2022-10-24T15:51:26.728Z,16.35
2022-10-24T15:53:54.205Z,16.25
2022-10-24T15:56:17.668Z,16.11
2022-10-24T15:58:41.170Z,16.04
2022-10-24T16:01:04.268Z,16.05
2022-10-24T16:03:27.083Z,15.94
2022-10-24T16:05:56.004Z,15.83
2022-10-24T16:08:19.893Z,15.74
2022-10-24T16:10:43.658Z,15.42
2022-10-24T16:13:07.468Z,15.33
2022-10-24T16:15:34.957Z,15.36
2022-10-24T16:17:58.055Z,15.11
2022-10-24T16:20:21.394Z,15.05
2022-10-24T16:22:44.425Z,14.97
2022-10-24T16:25:08.071Z,14.83
2022-10-24T16:27:30.618Z,14.64
2022-10-24T16:29:53.466Z,14.70
2022-10-24T16:32:16.301Z,14.80
2022-10-24T16:34:40.192Z,14.77
2022-10-24T16:37:02.724Z,14.60
2022-10-24T16:39:25.577Z,14.59
2022-10-24T16:41:48.907Z,14.71
2022-10-24T16:44:13.326Z,14.78
2022-10-24T16:46:35.937Z,14.84
2022-10-24T16:48:58.804Z,14.81
2022-10-24T16:51:25.364Z,14.77
2022-10-24T16:53:48.338Z,14.80
2022-10-24T16:56:13.107Z,14.87
2022-10-24T16:58:36.605Z,14.98
2022-10-24T17:01:05.407Z,14.99
2022-10-24T17:03:27.968Z,14.95
2022-10-24T17:05:52.093Z,14.92
2022-10-24T17:08:15.926Z,14.85
2022-10-24T17:10:38.863Z,14.80
2022-10-24T17:13:02.086Z,14.84
2022-10-24T17:15:24.958Z,14.84
2022-10-24T17:17:48.325Z,14.95
2022-10-24T17:20:12.299Z,14.76
2022-10-24T17:22:37.312Z,14.92
2022-10-24T17:25:00.170Z,14.84
2022-10-24T17:27:23.574Z,14.89
2022-10-24T17:29:46.551Z,14.97
2022-10-24T17:32:12.478Z,15.04
2022-10-24T17:34:35.611Z,15.05
2022-10-24T17:37:18.127Z,14.97
2022-10-24T17:39:48.364Z,14.92
2022-10-24T17:42:11.726Z,14.73
2022-10-24T17:44:35.113Z,14.49
2022-10-24T17:46:58.500Z,14.32
2022-10-24T17:49:22.470Z,14.37
2022-10-24T17:51:47.166Z,14.46
2022-10-24T17:54:10.783Z,14.47
2022-10-24T17:56:33.502Z,14.46
2022-10-24T17:58:55.985Z,14.41
2022-10-24T18:01:19.074Z,14.43
2022-10-24T18:03:44.498Z,14.41
2022-10-24T18:06:08.301Z,14.37
2022-10-24T18:08:31.192Z,14.12
2022-10-24T18:10:54.149Z,14.01
2022-10-24T18:13:17.023Z,14.19
2022-10-24T18:15:39.957Z,14.08
2022-10-24T18:18:03.370Z,14.06
2022-10-24T18:20:26.525Z,13.91
2022-10-24T18:22:49.649Z,13.75
2022-10-24T18:25:18.717Z,13.78
2022-10-24T18:27:44.849Z,13.86
2022-10-24T18:30:08.502Z,13.89
2022-10-24T18:32:31.589Z,13.95
2022-10-24T18:34:54.311Z,14.08
2022-10-24T18:37:17.461Z,14.09
2022-10-24T18:39:40.324Z,14.01
2022-10-24T18:42:23.297Z,14.05
2022-10-24T18:44:51.128Z,14.01
2022-10-24T18:47:20.706Z,14.09
2022-10-24T18:49:46.692Z,13.98
2022-10-24T18:52:09.513Z,13.98
2022-10-24T18:54:35.260Z,14.06
2022-10-24T18:56:59.069Z,13.92
2022-10-24T18:59:21.974Z,14.04
2022-10-24T19:01:59.582Z,14.08
2022-10-24T19:04:25.629Z,14.18
2022-10-24T19:06:50.411Z,13.94
2022-10-24T19:09:18.870Z,14.05
2022-10-24T19:11:42.046Z,14.00
2022-10-24T19:14:05.523Z,14.16
2022-10-24T19:16:31.631Z,14.19
2022-10-24T19:18:58.320Z,14.19
2022-10-24T19:21:22.072Z,14.11
2022-10-24T19:23:45.355Z,14.00
2022-10-24T19:26:08.152Z,14.01
2022-10-24T19:28:31.200Z,13.91
2022-10-24T19:30:54.109Z,13.94
2022-10-24T19:33:16.862Z,13.97
2022-10-24T19:35:46.671Z,13.79
2022-10-24T19:38:09.424Z,13.78
2022-10-24T19:40:32.384Z,13.73
2022-10-24T19:42:55.372Z,13.73
2022-10-24T19:45:21.423Z,13.67
2022-10-24T19:47:47.876Z,13.74
2022-10-24T19:50:12.865Z,13.74
2022-10-24T19:52:36.283Z,13.81
2022-10-24T19:54:59.405Z,13.92
2022-10-24T19:57:23.355Z,13.88
2022-10-24T19:59:46.288Z,13.84
2022-10-24T20:02:29.798Z,13.79
2022-10-24T20:05:13.256Z,13.78
2022-10-24T20:07:35.976Z,13.77
2022-10-24T20:09:58.637Z,13.68
2022-10-24T20:12:21.559Z,13.68
2022-10-24T20:14:44.403Z,13.73
2022-10-24T20:17:06.932Z,13.70
2022-10-24T20:19:29.744Z,13.81
2022-10-24T20:21:52.542Z,13.75
2022-10-24T20:24:15.782Z,13.78
2022-10-24T20:26:39.843Z,13.65
2022-10-24T20:29:03.216Z,13.77
2022-10-24T20:31:32.476Z,13.64
2022-10-24T20:34:03.465Z,13.65
2022-10-24T20:36:32.995Z,13.58
2022-10-24T20:38:55.832Z,13.60
2022-10-24T20:41:18.322Z,13.65
2022-10-24T20:43:41.154Z,13.67
2022-10-24T20:46:05.661Z,13.75
2022-10-24T20:48:28.419Z,13.74
2022-10-24T20:50:51.161Z,13.75
2022-10-24T20:53:14.089Z,13.82
2022-10-24T20:55:45.447Z,13.88
2022-10-24T20:58:08.059Z,13.91
2022-10-24T21:00:30.826Z,13.97
2022-10-24T21:02:53.554Z,14.04
2022-10-24T21:05:16.193Z,14.09
2022-10-24T21:07:40.537Z,14.13
2022-10-24T21:10:04.696Z,14.25
2022-10-24T21:12:27.751Z,14.30
2022-10-24T21:14:50.408Z,14.33
2022-10-24T21:17:13.194Z,14.23
2022-10-24T21:19:35.699Z,14.13
2022-10-24T21:21:58.317Z,14.04
2022-10-24T21:24:21.259Z,13.98
2022-10-24T21:26:43.982Z,14.00
2022-10-24T21:29:09.219Z,13.97
2022-10-24T21:31:43.450Z,13.94
2022-10-24T21:36:34.020Z,13.98
2022-10-24T21:38:57.948Z,13.91
2022-10-24T21:41:21.743Z,13.74
2022-10-24T21:43:44.870Z,13.74
2022-10-24T21:46:10.356Z,13.68
2022-10-24T21:48:33.241Z,13.71
2022-10-24T21:51:01.642Z,13.75
2022-10-24T21:53:25.287Z,13.82
2022-10-24T21:55:47.848Z,13.94
2022-10-24T21:58:10.557Z,13.95
2022-10-24T22:00:35.649Z,14.12
2022-10-24T22:03:00.638Z,14.12
2022-10-24T22:05:23.219Z,14.08
2022-10-24T22:07:47.579Z,14.16
2022-10-24T22:10:12.219Z,14.00
2022-10-24T22:12:34.754Z,13.91
2022-10-24T22:14:57.411Z,13.85
2022-10-24T22:17:25.285Z,13.98
2022-10-24T22:19:50.927Z,14.04
2022-10-24T22:22:13.625Z,14.06
2022-10-24T22:24:36.482Z,13.97
2022-10-24T22:26:59.042Z,14.08
2022-10-24T22:29:23.481Z,14.19
2022-10-24T22:31:47.035Z,14.04
2022-10-24T22:34:15.636Z,14.19
2022-10-24T22:37:20.181Z,14.33
2022-10-24T22:39:43.210Z,14.40
2022-10-24T22:42:08.472Z,14.41
2022-10-24T22:44:31.260Z,14.41
2022-10-24T22:47:24.966Z,14.39
2022-10-24T22:49:59.691Z,14.33
2022-10-24T22:52:22.621Z,14.41
2022-10-24T22:54:45.920Z,14.47
2022-10-24T22:57:09.147Z,14.40
2022-10-24T22:59:32.856Z,14.36
2022-10-24T23:02:26.128Z,14.34
2022-10-24T23:05:04.869Z,14.28
2022-10-24T23:07:32.087Z,14.30
2022-10-24T23:09:55.043Z,14.33
2022-10-24T23:12:20.160Z,14.15
2022-10-24T23:14:43.740Z,14.13
2022-10-24T23:17:06.581Z,14.23
2022-10-24T23:19:31.896Z,14.19
2022-10-24T23:22:21.984Z,14.25
2022-10-24T23:24:45.084Z,14.22
2022-10-24T23:27:13.514Z,14.23
2022-10-24T23:29:36.746Z,14.32
2022-10-24T23:31:59.983Z,14.47
2022-10-24T23:34:22.825Z,14.53
2022-10-24T23:36:45.719Z,14.47
2022-10-24T23:39:12.515Z,14.46
2022-10-24T23:41:35.567Z,14.44
2022-10-24T23:43:58.268Z,14.43
2022-10-24T23:46:31.675Z,14.49
2022-10-24T23:49:21.797Z,14.50
2022-10-24T23:51:57.962Z,14.59
2022-10-24T23:54:25.884Z,14.60
2022-10-24T23:56:48.641Z,14.57
2022-10-24T23:59:11.414Z,14.49
